Time;durP1;ratioP1;P1;durP2;ratioP2;P2;SDS_P1;SDS_P2;PMS_P1;PMS_P2;Temp;Humidity;BMP_temperature;BMP_pressure;BME280_temperature;BME280_humidity;BME280_pressure;Samples;Min_cycle;Max_cycle;Signal;HPM_P1;HPM_P2
2023/08/10 00:02:44;;;;;;;18.33;9.40;;;;;;;;;;4398840;32;66741;-57
2023/08/10 00:05:31;;;;;;;19.02;9.93;;;;;;;;;;4386654;32;59400;-57
2023/08/10 00:08:18;;;;;;;16.15;10.07;;;;;;;;;;4386442;32;70775;-56
2023/08/10 00:11:06;;;;;;;20.17;9.82;;;;;;;;;;4398492;32;68424;-57
2023/08/10 00:13:52;;;;;;;16.30;8.93;;;;;;;;;;4386604;32;66834;-57
2023/08/10 00:16:39;;;;;;;11.73;8.45;;;;;;;;;;4386340;32;70868;-56
2023/08/10 00:19:25;;;;;;;;;;;;;;;;;;4386855;32;65897;-56
2023/08/10 00:22:13;;;;;;;16.17;9.38;;;;;;;;;;4386759;32;67147;-57
2023/08/10 00:25:00;;;;;;;13.18;8.95;;;;;;;;;;4386405;32;67799;-57
2023/08/10 00:27:46;;;;;;;17.98;9.93;;;;;;;;;;4398140;32;70715;-57
2023/08/10 00:30:33;;;;;;;;;;;;;;;;;;4398794;32;65942;-56
2023/08/10 00:33:19;;;;;;;16.70;9.00;;;;;;;;;;4398519;32;67894;-57
2023/08/10 00:36:06;;;;;;;15.77;9.27;;;;;;;;;;4398549;32;59272;-57
2023/08/10 00:38:53;;;;;;;15.68;9.10;;;;;;;;;;4398093;32;72017;-56
2023/08/10 00:41:41;;;;;;;16.12;9.25;;;;;;;;;;4386055;32;69446;-56
2023/08/10 00:44:28;;;;;;;15.10;9.27;;;;;;;;;;4398127;32;66543;-57
2023/08/10 00:47:15;;;;;;;14.93;9.60;;;;;;;;;;4375630;32;72031;-57
2023/08/10 00:50:02;;;;;;;16.48;9.25;;;;;;;;;;4386335;32;70605;-57
2023/08/10 00:52:48;;;;;;;17.77;9.95;;;;;;;;;;4372949;32;70031;-56
2023/08/10 00:55:35;;;;;;;16.83;9.38;;;;;;;;;;4386350;32;66509;-56
2023/08/10 00:58:22;;;;;;;21.33;10.27;;;;;;;;;;4398039;32;71429;-56
2023/08/10 01:01:09;;;;;;;20.40;10.85;;;;;;;;;;4397985;32;65888;-56
2023/08/10 01:03:55;;;;;;;16.40;10.60;;;;;;;;;;4385978;32;67868;-57
2023/08/10 01:07:05;;;;;;;14.87;9.90;;;;;;;;;;4382936;32;60699;-57
2023/08/10 01:10:13;;;;;;;20.77;11.43;;;;;;;;;;4397535;32;70852;-57
2023/08/10 01:13:19;;;;;;;20.35;10.55;;;;;;;;;;4374484;32;69351;-56
2023/08/10 01:16:10;;;;;;;25.02;14.32;;;;;;;;;;4396492;32;67482;-57
2023/08/10 01:18:58;;;;;;;19.12;11.40;;;;;;;;;;4365160;32;60641;-56
2023/08/10 01:21:54;;;;;;;17.55;10.68;;;;;;;;;;4397787;32;69745;-57
2023/08/10 01:24:43;;;;;;;22.62;14.02;;;;;;;;;;4385717;32;69415;-57
2023/08/10 01:27:30;;;;;;;20.08;13.00;;;;;;;;;;4397748;32;66556;-56
2023/08/10 01:30:17;;;;;;;24.83;12.80;;;;;;;;;;4385633;32;70806;-57
2023/08/10 01:33:04;;;;;;;21.62;13.48;;;;;;;;;;4397736;32;65958;-56
2023/08/10 01:35:51;;;;;;;22.60;12.98;;;;;;;;;;4397636;32;66386;-57
2023/08/10 01:38:37;;;;;;;;;;;;;;;;;;4398132;32;59386;-57
2023/08/10 01:41:23;;;;;;;23.40;13.93;;;;;;;;;;4397826;32;71001;-56
2023/08/10 01:44:10;;;;;;;21.75;12.73;;;;;;;;;;4382911;32;65909;-57
2023/08/10 01:47:00;;;;;;;19.35;12.93;;;;;;;;;;4397498;32;67794;-56
2023/08/10 01:49:40;;;;;;;20.15;11.80;;;;;;;;;;3868642;36;43041;-57
2023/08/10 01:52:42;;;;;;;19.25;11.25;;;;;;;;;;4400866;32;59252;-56
2023/08/10 01:55:28;;;;;;;18.25;12.15;;;;;;;;;;4414039;32;70547;-58
2023/08/10 01:58:15;;;;;;;17.98;11.07;;;;;;;;;;4414299;32;69411;-56
2023/08/10 02:01:02;;;;;;;19.23;12.27;;;;;;;;;;4426257;32;67533;-57
2023/08/10 02:03:49;;;;;;;23.42;12.07;;;;;;;;;;4425969;32;72180;-57
2023/08/10 02:06:40;;;;;;;;;;;;;;;;;;4426556;32;66191;-56
2023/08/10 02:09:26;;;;;;;19.17;11.80;;;;;;;;;;4411515;32;70095;-57
2023/08/10 02:12:13;;;;;;;22.27;11.90;;;;;;;;;;4411344;32;61011;-56
2023/08/10 02:15:00;;;;;;;;;;;;;;;;;;4411490;32;72430;-56
2023/08/10 02:17:47;;;;;;;18.98;12.43;;;;;;;;;;4426224;32;66006;-57
2023/08/10 02:20:33;;;;;;;;;;;;;;;;;;4414187;32;66652;-56
2023/08/10 02:23:19;;;;;;;20.55;12.18;;;;;;;;;;4426448;32;58887;-58
2023/08/10 02:26:06;;;;;;;;;;;;;;;;;;4411449;32;71402;-57
2023/08/10 02:28:52;;;;;;;24.98;14.40;;;;;;;;;;4425950;32;69729;-57
2023/08/10 02:31:39;;;;;;;24.95;14.50;;;;;;;;;;4425862;32;67858;-57
2023/08/10 02:34:25;;;;;;;21.52;13.68;;;;;;;;;;4425805;32;71556;-57
2023/08/10 02:37:12;;;;;;;;;;;;;;;;;;4426218;32;65855;-57
2023/08/10 02:39:58;;;;;;;21.98;13.50;;;;;;;;;;4413903;32;69712;-57
2023/08/10 02:42:45;;;;;;;23.02;14.80;;;;;;;;;;4402870;32;67870;-56
2023/08/10 02:45:32;;;;;;;19.37;13.10;;;;;;;;;;4413280;32;71967;-57
2023/08/10 02:48:18;;;;;;;23.40;12.82;;;;;;;;;;4417133;32;65763;-56
2023/08/10 02:51:05;;;;;;;22.42;12.85;;;;;;;;;;4410197;32;66667;-56
2023/08/10 02:53:52;;;;;;;;;;;;;;;;;;4398849;32;59947;-56
2023/08/10 02:56:38;;;;;;;;;;;;;;;;;;4397485;32;69851;-57
2023/08/10 02:59:25;;;;;;;17.73;11.30;;;;;;;;;;4394537;32;69694;-56
2023/08/10 03:02:13;;;;;;;19.60;11.73;;;;;;;;;;4399675;32;66827;-57
2023/08/10 03:05:00;;;;;;;14.87;9.70;;;;;;;;;;4400058;32;60240;-57
2023/08/10 03:07:48;;;;;;;15.38;8.80;;;;;;;;;;4387800;32;70539;-56
2023/08/10 03:10:35;;;;;;;16.80;8.93;;;;;;;;;;4399488;32;69274;-56
2023/08/10 03:13:21;;;;;;;15.60;9.05;;;;;;;;;;4385232;32;67679;-57
2023/08/10 03:16:09;;;;;;;15.30;10.27;;;;;;;;;;4385240;32;72354;-56
2023/08/10 03:18:57;;;;;;;15.55;9.18;;;;;;;;;;4387571;32;65887;-57
2023/08/10 03:21:43;;;;;;;12.70;8.63;;;;;;;;;;4387833;32;66653;-57
2023/08/10 03:24:30;;;;;;;17.05;8.20;;;;;;;;;;4400048;32;59627;-57
2023/08/10 03:27:16;;;;;;;11.82;7.47;;;;;;;;;;4399246;32;69364;-57
2023/08/10 03:30:04;;;;;;;15.13;8.10;;;;;;;;;;4399857;32;65795;-58
2023/08/10 03:32:51;;;;;;;10.52;6.78;;;;;;;;;;4377092;32;67996;-56
2023/08/10 03:35:38;;;;;;;13.95;6.95;;;;;;;;;;4387921;32;60180;-57
2023/08/10 03:38:25;;;;;;;12.30;6.93;;;;;;;;;;4401281;32;69940;-57
2023/08/10 03:41:12;;;;;;;11.05;6.22;;;;;;;;;;4406321;32;68386;-58
2023/08/10 03:43:58;;;;;;;13.32;7.30;;;;;;;;;;4379899;32;67050;-57
2023/08/10 03:46:45;;;;;;;11.52;5.90;;;;;;;;;;4402611;32;72100;-57
2023/08/10 03:49:31;;;;;;;12.13;6.32;;;;;;;;;;4388220;32;64564;-57
2023/08/10 03:52:20;;;;;;;7.47;5.37;;;;;;;;;;4387630;32;66574;-57
2023/08/10 03:55:07;;;;;;;8.27;4.65;;;;;;;;;;4387365;32;67213;-57
2023/08/10 03:57:53;;;;;;;9.07;5.00;;;;;;;;;;4376605;32;70776;-57
2023/08/10 04:00:45;;;;;;;9.68;5.87;;;;;;;;;;4399202;32;65817;-56
2023/08/10 04:03:32;;;;;;;13.50;6.12;;;;;;;;;;4399822;32;67788;-56
2023/08/10 04:06:18;;;;;;;7.70;5.28;;;;;;;;;;4399439;32;58885;-57
2023/08/10 04:09:05;;;;;;;10.18;5.47;;;;;;;;;;4398756;32;69626;-57
2023/08/10 04:11:51;;;;;;;;;;;;;;;;;;4398563;32;69478;-56
2023/08/10 04:14:38;;;;;;;8.98;6.15;;;;;;;;;;4399131;32;68068;-56
2023/08/10 04:17:24;;;;;;;10.77;4.93;;;;;;;;;;4399125;32;58983;-58
2023/08/10 04:20:13;;;;;;;9.68;5.62;;;;;;;;;;4376131;32;70966;-57
2023/08/10 04:23:00;;;;;;;9.00;5.53;;;;;;;;;;4386939;32;69143;-57
2023/08/10 04:25:47;;;;;;;10.40;6.07;;;;;;;;;;4386902;32;67080;-57
2023/08/10 04:28:33;;;;;;;15.45;6.05;;;;;;;;;;4398657;32;72054;-56
2023/08/10 04:31:20;;;;;;;19.62;9.35;;;;;;;;;;4384372;32;66143;-57
2023/08/10 04:34:07;;;;;;;20.62;10.45;;;;;;;;;;4398834;32;67561;-57
2023/08/10 04:36:54;;;;;;;15.55;10.25;;;;;;;;;;4399019;32;59391;-56
2023/08/10 04:39:41;;;;;;;;;;;;;;;;;;4399006;32;70655;-57
2023/08/10 04:42:28;;;;;;;19.33;11.30;;;;;;;;;;4398905;32;65824;-57
2023/08/10 04:45:15;;;;;;;19.02;11.18;;;;;;;;;;4398642;32;67279;-56
2023/08/10 04:48:02;;;;;;;17.05;10.82;;;;;;;;;;4398068;32;59406;-56
2023/08/10 04:50:48;;;;;;;19.00;11.00;;;;;;;;;;4398549;32;69566;-57
2023/08/10 04:53:35;;;;;;;19.33;9.73;;;;;;;;;;4373101;32;69739;-57
2023/08/10 04:56:22;;;;;;;15.68;9.60;;;;;;;;;;4384123;32;67359;-56
2023/08/10 04:59:08;;;;;;;31.30;17.25;;;;;;;;;;4386210;32;71598;-56
2023/08/10 05:01:55;;;;;;;26.65;14.77;;;;;;;;;;4398602;32;65620;-56
2023/08/10 05:04:41;;;;;;;24.73;14.25;;;;;;;;;;4398630;32;67744;-57
2023/08/10 05:07:28;;;;;;;;;;;;;;;;;;4398638;32;67320;-57
2023/08/10 05:10:14;;;;;;;21.73;10.88;;;;;;;;;;4373045;32;70624;-57
2023/08/10 05:13:00;;;;;;;17.08;8.73;;;;;;;;;;4373034;32;65177;-56
2023/08/10 05:15:49;;;;;;;23.62;12.85;;;;;;;;;;4386257;32;67567;-57
2023/08/10 05:18:36;;;;;;;20.45;10.43;;;;;;;;;;4383715;32;61466;-56
2023/08/10 05:21:22;;;;;;;21.77;10.82;;;;;;;;;;4398171;32;70306;-57
2023/08/10 05:24:09;;;;;;;26.98;10.38;;;;;;;;;;4397789;32;68764;-57
2023/08/10 05:26:56;;;;;;;14.68;7.72;;;;;;;;;;4398189;32;67882;-57
2023/08/10 05:29:42;;;;;;;17.58;8.07;;;;;;;;;;4372977;32;73920;-56
2023/08/10 05:32:29;;;;;;;14.13;9.30;;;;;;;;;;4383454;32;70564;-56
2023/08/10 05:35:16;;;;;;;17.37;10.48;;;;;;;;;;4386181;32;69663;-58
2023/08/10 05:38:03;;;;;;;19.25;9.98;;;;;;;;;;4387237;32;67704;-56
2023/08/10 05:40:49;;;;;;;12.88;6.97;;;;;;;;;;4398269;32;70422;-56
2023/08/10 05:43:36;;;;;;;11.43;5.87;;;;;;;;;;4386132;32;66045;-57
2023/08/10 05:46:23;;;;;;;9.07;5.60;;;;;;;;;;4398100;32;67868;-57
2023/08/10 05:49:10;;;;;;;8.45;4.57;;;;;;;;;;4397433;32;59920;-57
2023/08/10 05:51:56;;;;;;;;;;;;;;;;;;4386221;32;70756;-57
2023/08/10 05:54:43;;;;;;;4.12;3.15;;;;;;;;;;4386116;32;69632;-56
2023/08/10 05:57:29;;;;;;;5.93;3.97;;;;;;;;;;4385985;32;67099;-57
2023/08/10 06:00:16;;;;;;;7.18;3.67;;;;;;;;;;4362189;32;61299;-56
2023/08/10 06:03:07;;;;;;;6.15;3.95;;;;;;;;;;4385771;32;70662;-57
2023/08/10 06:05:55;;;;;;;6.00;3.70;;;;;;;;;;4397504;32;69294;-56
2023/08/10 06:08:41;;;;;;;6.22;3.80;;;;;;;;;;4383201;32;67427;-57
2023/08/10 06:11:28;;;;;;;6.35;4.25;;;;;;;;;;4397234;32;71996;-57
2023/08/10 06:14:15;;;;;;;6.72;4.00;;;;;;;;;;4397589;32;66330;-56
2023/08/10 06:17:04;;;;;;;8.98;4.07;;;;;;;;;;4385485;32;66707;-56
2023/08/10 06:19:52;;;;;;;6.28;4.00;;;;;;;;;;4383199;32;58939;-57
2023/08/10 06:22:39;;;;;;;5.80;4.10;;;;;;;;;;4385294;32;71914;-57
2023/08/10 06:25:26;;;;;;;7.47;4.10;;;;;;;;;;4397355;32;65904;-56
2023/08/10 06:28:13;;;;;;;6.40;3.80;;;;;;;;;;4397212;32;67757;-57
2023/08/10 06:30:59;;;;;;;7.35;4.60;;;;;;;;;;4385866;32;60029;-57
2023/08/10 06:33:46;;;;;;;5.93;3.60;;;;;;;;;;4397191;32;70259;-57
2023/08/10 06:36:33;;;;;;;5.10;3.90;;;;;;;;;;4399968;32;69252;-57
2023/08/10 06:39:21;;;;;;;6.78;4.22;;;;;;;;;;4399839;32;67958;-57
2023/08/10 06:42:08;;;;;;;8.95;4.50;;;;;;;;;;4388275;32;71731;-57
2023/08/10 06:44:55;;;;;;;4.50;3.60;;;;;;;;;;4387825;32;70811;-56
2023/08/10 06:47:43;;;;;;;5.62;4.40;;;;;;;;;;4399297;32;68340;-56
2023/08/10 06:50:30;;;;;;;6.57;3.97;;;;;;;;;;4385055;32;67044;-56
2023/08/10 06:53:17;;;;;;;6.15;4.57;;;;;;;;;;4377009;32;71658;-57
2023/08/10 06:56:05;;;;;;;5.22;3.85;;;;;;;;;;4399893;32;66285;-56
2023/08/10 06:58:52;;;;;;;5.22;3.95;;;;;;;;;;4399621;32;66644;-57
2023/08/10 07:01:38;;;;;;;4.78;3.72;;;;;;;;;;4399917;32;60293;-56
2023/08/10 07:04:25;;;;;;;9.35;3.90;;;;;;;;;;4399533;32;69598;-57
2023/08/10 07:07:12;;;;;;;5.37;3.92;;;;;;;;;;4387720;32;68004;-57
2023/08/10 07:09:58;;;;;;;5.95;4.62;;;;;;;;;;4387397;32;66958;-57
2023/08/10 07:14:28;;;;;;;4.75;3.60;;;;;;;;;;3846992;37;43184;-58
2023/08/10 07:17:15;;;;;;;5.37;3.33;;;;;;;;;;4410898;32;60292;-56
2023/08/10 07:20:04;;;;;;;5.37;4.35;;;;;;;;;;4410683;32;69685;-57
2023/08/10 07:22:51;;;;;;;5.53;4.28;;;;;;;;;;4410474;32;68797;-57
2023/08/10 07:25:38;;;;;;;5.90;4.03;;;;;;;;;;4409405;32;66529;-57
2023/08/10 07:28:25;;;;;;;5.28;4.00;;;;;;;;;;4410486;32;70669;-58
2023/08/10 07:31:12;;;;;;;5.65;3.92;;;;;;;;;;4411258;32;66338;-58
2023/08/10 07:33:59;;;;;;;6.57;4.70;;;;;;;;;;4409390;32;67391;-57
2023/08/10 07:36:46;;;;;;;6.05;4.53;;;;;;;;;;4410816;32;58974;-57
2023/08/10 07:39:33;;;;;;;7.43;4.60;;;;;;;;;;4397816;32;72600;-57
2023/08/10 07:42:20;;;;;;;7.35;4.15;;;;;;;;;;4410680;32;64881;-56
2023/08/10 07:45:09;;;;;;;7.50;4.82;;;;;;;;;;4410526;32;67477;-57
2023/08/10 07:47:56;;;;;;;5.50;4.22;;;;;;;;;;4410449;32;60261;-57
2023/08/10 07:50:43;;;;;;;5.53;4.30;;;;;;;;;;4410423;32;70108;-55
2023/08/10 07:53:29;;;;;;;;;;;;;;;;;;4410722;32;69489;-56
2023/08/10 07:56:16;;;;;;;;;;;;;;;;;;4409588;32;67033;-56
2023/08/10 07:59:02;;;;;;;6.28;4.30;;;;;;;;;;4410559;32;71728;-57
2023/08/10 08:01:49;;;;;;;6.60;5.07;;;;;;;;;;4398488;32;67259;-59
2023/08/10 08:04:36;;;;;;;8.23;4.87;;;;;;;;;;4410595;32;69252;-59
2023/08/10 08:07:23;;;;;;;;;;;;;;;;;;4410908;32;66785;-57
2023/08/10 08:10:10;;;;;;;6.20;4.25;;;;;;;;;;4410265;32;72097;-57
2023/08/10 08:12:56;;;;;;;7.87;5.00;;;;;;;;;;4397034;32;66233;-57
2023/08/10 08:15:43;;;;;;;8.32;4.30;;;;;;;;;;4410347;32;67783;-57
2023/08/10 08:18:48;;;;;;;;;;;;;;;;;;4410715;32;59291;-57
2023/08/10 08:21:35;;;;;;;6.85;4.80;;;;;;;;;;4408802;32;69021;-57
2023/08/10 08:24:40;;;;;;;6.78;4.28;;;;;;;;;;4405505;32;68283;-57
2023/08/10 08:27:38;;;;;;;6.00;4.37;;;;;;;;;;4388004;32;68866;-58
2023/08/10 08:30:26;;;;;;;12.90;5.22;;;;;;;;;;4398879;32;59169;-56
2023/08/10 08:33:12;;;;;;;6.50;4.65;;;;;;;;;;4399504;32;70163;-57
2023/08/10 08:35:59;;;;;;;;;;;;;;;;;;4398612;32;69229;-57
2023/08/10 08:38:45;;;;;;;5.93;4.93;;;;;;;;;;4399918;32;67296;-57
2023/08/10 08:41:36;;;;;;;6.28;4.62;;;;;;;;;;4399434;32;70702;-57
2023/08/10 08:44:23;;;;;;;7.18;4.72;;;;;;;;;;4399650;32;66073;-56
2023/08/10 08:47:10;;;;;;;7.05;5.00;;;;;;;;;;4398169;32;66573;-57
2023/08/10 08:49:57;;;;;;;8.15;4.90;;;;;;;;;;4398570;32;59535;-57
2023/08/10 08:52:44;;;;;;;6.68;4.60;;;;;;;;;;4399490;32;70491;-57
2023/08/10 08:55:31;;;;;;;5.53;3.70;;;;;;;;;;4397926;32;67300;-57
2023/08/10 08:58:19;;;;;;;5.70;4.20;;;;;;;;;;4397818;32;68851;-57
2023/08/10 09:01:06;;;;;;;6.25;4.90;;;;;;;;;;4399573;32;60181;-57
2023/08/10 09:03:52;;;;;;;6.93;4.95;;;;;;;;;;4399408;32;70746;-57
2023/08/10 09:06:39;;;;;;;7.10;5.10;;;;;;;;;;4397573;32;70319;-57
2023/08/10 09:09:26;;;;;;;7.28;5.00;;;;;;;;;;4398307;32;66472;-58
2023/08/10 09:12:40;;;;;;;5.53;4.82;;;;;;;;;;4387256;32;71799;-58
2023/08/10 09:15:27;;;;;;;8.50;5.10;;;;;;;;;;4399357;32;65601;-57
2023/08/10 09:18:14;;;;;;;8.90;5.32;;;;;;;;;;4398381;32;67490;-57
2023/08/10 09:21:30;;;;;;;6.22;4.62;;;;;;;;;;4397996;32;66885;-57
2023/08/10 09:24:16;;;;;;;9.07;5.20;;;;;;;;;;4398011;32;71489;-56
2023/08/10 09:27:03;;;;;;;12.37;5.78;;;;;;;;;;4398455;32;65555;-57
2023/08/10 09:29:50;;;;;;;6.82;5.15;;;;;;;;;;4387014;32;67683;-58
2023/08/10 09:32:37;;;;;;;6.15;4.97;;;;;;;;;;4398184;32;58974;-57
2023/08/10 09:35:23;;;;;;;5.72;4.62;;;;;;;;;;4397598;32;69968;-58
2023/08/10 09:38:10;;;;;;;6.80;5.20;;;;;;;;;;4399168;32;68261;-57
2023/08/10 09:41:11;;;;;;;7.85;5.15;;;;;;;;;;4401950;32;67655;-58
2023/08/10 09:43:58;;;;;;;6.00;4.00;;;;;;;;;;4403470;32;59450;-56
2023/08/10 09:46:45;;;;;;;6.47;4.70;;;;;;;;;;4394338;32;71079;-57
2023/08/10 09:49:31;;;;;;;7.60;6.00;;;;;;;;;;4402409;32;68438;-57
2023/08/10 09:52:18;;;;;;;9.55;6.12;;;;;;;;;;4397775;32;66760;-57
2023/08/10 09:55:06;;;;;;;8.57;5.53;;;;;;;;;;4397406;32;69973;-56
2023/08/10 09:57:53;;;;;;;7.22;5.30;;;;;;;;;;4397569;32;65685;-56
2023/08/10 10:00:41;;;;;;;8.32;5.47;;;;;;;;;;4398750;32;66628;-57
2023/08/10 10:03:29;;;;;;;7.18;5.10;;;;;;;;;;4376424;32;59613;-57
2023/08/10 10:06:16;;;;;;;7.03;5.18;;;;;;;;;;4397294;32;71078;-56
2023/08/10 10:09:04;;;;;;;7.65;4.80;;;;;;;;;;4397489;32;66276;-57
2023/08/10 10:11:51;;;;;;;9.90;5.05;;;;;;;;;;4386968;32;66771;-57
2023/08/10 10:14:45;;;;;;;6.53;4.62;;;;;;;;;;4397496;32;60249;-58
2023/08/10 10:17:32;;;;;;;9.65;5.10;;;;;;;;;;4398514;32;69205;-57
2023/08/10 10:20:19;;;;;;;5.78;4.65;;;;;;;;;;4397261;32;68202;-57
2023/08/10 10:23:18;;;;;;;5.82;4.75;;;;;;;;;;4398690;32;68124;-57
2023/08/10 10:26:08;;;;;;;5.28;3.50;;;;;;;;;;4398259;32;70910;-56
2023/08/10 10:29:12;;;;;;;7.70;4.97;;;;;;;;;;4397467;32;66273;-56
2023/08/10 10:32:15;;;;;;;5.65;4.62;;;;;;;;;;4398613;32;67951;-57
2023/08/10 10:35:01;;;;;;;7.57;5.37;;;;;;;;;;4398167;32;66746;-57
2023/08/10 10:37:58;;;;;;;7.43;5.28;;;;;;;;;;4386162;32;71618;-56
2023/08/10 10:40:45;;;;;;;9.10;5.30;;;;;;;;;;4396781;32;64775;-57
2023/08/10 10:43:54;;;;;;;7.50;5.30;;;;;;;;;;3846103;37;43604;-56
2023/08/10 10:46:41;;;;;;;7.15;5.15;;;;;;;;;;4411149;32;60157;-57
2023/08/10 10:49:27;;;;;;;;;;;;;;;;;;4398860;32;70887;-57
2023/08/10 10:52:35;;;;;;;7.80;5.50;;;;;;;;;;4411075;32;69570;-56
2023/08/10 10:55:25;;;;;;;6.45;4.80;;;;;;;;;;4410717;32;67830;-57
2023/08/10 10:58:15;;;;;;;8.88;4.72;;;;;;;;;;4410627;32;71559;-56
2023/08/10 11:01:03;;;;;;;9.55;5.50;;;;;;;;;;4398925;32;66204;-57
2023/08/10 11:03:54;;;;;;;8.00;5.18;;;;;;;;;;4398821;32;67008;-57
2023/08/10 11:06:41;;;;;;;6.95;5.32;;;;;;;;;;4388273;32;59132;-57
2023/08/10 11:09:27;;;;;;;7.45;5.07;;;;;;;;;;4410502;32;71427;-57
2023/08/10 11:12:14;;;;;;;9.70;5.40;;;;;;;;;;4385148;32;66739;-56
2023/08/10 11:15:00;;;;;;;6.93;5.15;;;;;;;;;;4396240;32;68260;-58
2023/08/10 11:17:55;;;;;;;6.20;5.03;;;;;;;;;;4398749;32;59986;-57
2023/08/10 11:20:50;;;;;;;8.30;5.18;;;;;;;;;;4398661;32;70581;-57
2023/08/10 11:23:39;;;;;;;7.53;5.40;;;;;;;;;;4410186;32;69153;-57
2023/08/10 11:26:26;;;;;;;8.18;5.25;;;;;;;;;;4410283;32;66519;-57
2023/08/10 11:29:12;;;;;;;6.03;5.18;;;;;;;;;;4384899;32;72088;-57
2023/08/10 11:31:59;;;;;;;8.85;5.10;;;;;;;;;;4410557;32;65377;-57
2023/08/10 11:34:46;;;;;;;11.20;6.05;;;;;;;;;;4410085;32;68560;-58
2023/08/10 11:37:36;;;;;;;7.95;5.35;;;;;;;;;;4374294;32;67315;-58
2023/08/10 11:40:23;;;;;;;7.40;5.40;;;;;;;;;;4410144;32;71532;-56
2023/08/10 11:43:11;;;;;;;8.25;5.82;;;;;;;;;;4409768;32;64944;-57
2023/08/10 11:45:58;;;;;;;5.70;4.43;;;;;;;;;;4398106;32;67437;-57
2023/08/10 11:48:46;;;;;;;6.45;5.22;;;;;;;;;;4398151;32;59020;-57
2023/08/10 11:51:34;;;;;;;6.80;5.05;;;;;;;;;;4395008;32;70783;-58
2023/08/10 11:54:28;;;;;;;7.57;5.43;;;;;;;;;;4403617;32;69709;-57
2023/08/10 11:57:15;;;;;;;6.95;4.95;;;;;;;;;;4399859;32;66857;-57
2023/08/10 12:00:19;;;;;;;9.73;4.70;;;;;;;;;;4399974;32;59334;-57
2023/08/10 12:03:14;;;;;;;7.10;4.82;;;;;;;;;;4399609;32;70870;-57
2023/08/10 12:06:04;;;;;;;6.68;5.30;;;;;;;;;;4376956;32;69221;-58
2023/08/10 12:08:51;;;;;;;7.60;5.28;;;;;;;;;;4399850;32;67987;-55
2023/08/10 12:11:39;;;;;;;9.02;5.20;;;;;;;;;;4399583;32;71903;-57
2023/08/10 12:14:26;;;;;;;7.10;5.45;;;;;;;;;;4376969;32;65716;-56
2023/08/10 12:17:12;;;;;;;8.35;5.03;;;;;;;;;;4387867;32;66557;-57
2023/08/10 12:19:59;;;;;;;7.12;5.10;;;;;;;;;;4399763;32;59013;-57
2023/08/10 12:22:46;;;;;;;7.43;4.97;;;;;;;;;;4387106;32;70351;-57
2023/08/10 12:25:32;;;;;;;7.40;4.75;;;;;;;;;;4399676;32;66398;-57
2023/08/10 12:28:20;;;;;;;6.15;4.65;;;;;;;;;;4387437;32;67399;-56
2023/08/10 12:31:08;;;;;;;6.28;4.68;;;;;;;;;;4399560;32;59103;-57
2023/08/10 12:33:56;;;;;;;5.85;4.80;;;;;;;;;;4399310;32;69732;-57
2023/08/10 12:36:42;;;;;;;5.12;3.92;;;;;;;;;;4399381;32;68267;-56
2023/08/10 12:39:31;;;;;;;6.15;5.00;;;;;;;;;;4376668;32;66388;-58
2023/08/10 12:42:17;;;;;;;7.65;4.62;;;;;;;;;;4398837;32;70660;-57
2023/08/10 12:45:07;;;;;;;6.85;5.20;;;;;;;;;;4399530;32;65970;-57
2023/08/10 12:47:54;;;;;;;5.90;4.50;;;;;;;;;;4399287;32;67169;-58
2023/08/10 12:50:42;;;;;;;6.45;4.57;;;;;;;;;;4399406;32;67939;-57
2023/08/10 12:53:28;;;;;;;6.32;4.47;;;;;;;;;;4387081;32;71212;-57
2023/08/10 12:56:15;;;;;;;5.87;4.90;;;;;;;;;;4399211;32;64596;-57
2023/08/10 12:59:02;;;;;;;8.02;5.32;;;;;;;;;;4399217;32;66602;-57
2023/08/10 13:01:51;;;;;;;6.25;4.60;;;;;;;;;;4399373;32;59190;-56
2023/08/10 13:04:37;;;;;;;5.80;4.43;;;;;;;;;;4387264;32;70655;-57
2023/08/10 13:07:25;;;;;;;5.93;4.45;;;;;;;;;;4398672;32;69416;-57
2023/08/10 13:10:11;;;;;;;;;;;;;;;;;;4399264;32;67313;-56
2023/08/10 13:12:58;;;;;;;6.87;4.65;;;;;;;;;;4374138;32;59741;-58
2023/08/10 13:15:44;;;;;;;7.57;4.85;;;;;;;;;;4398838;32;70459;-57
2023/08/10 13:18:31;;;;;;;7.43;4.45;;;;;;;;;;4386792;32;69739;-57
2023/08/10 13:21:18;;;;;;;6.57;4.53;;;;;;;;;;4398708;32;67691;-57
2023/08/10 13:24:05;;;;;;;6.65;4.47;;;;;;;;;;4398524;32;70476;-57
2023/08/10 13:26:51;;;;;;;5.62;4.32;;;;;;;;;;4386732;32;64853;-57
2023/08/10 13:29:38;;;;;;;6.07;4.70;;;;;;;;;;4398757;32;67320;-57
2023/08/10 13:32:24;;;;;;;;;;;;;;;;;;4387424;32;60048;-57
2023/08/10 13:35:11;;;;;;;4.32;3.15;;;;;;;;;;4398747;32;69918;-57
2023/08/10 13:37:58;;;;;;;8.15;4.72;;;;;;;;;;4398551;32;66519;-57
2023/08/10 13:40:45;;;;;;;8.48;5.00;;;;;;;;;;4383708;32;68568;-57
2023/08/10 13:43:31;;;;;;;6.57;4.35;;;;;;;;;;4398340;32;60041;-57
2023/08/10 13:46:18;;;;;;;5.12;3.90;;;;;;;;;;4398322;32;70414;-56
2023/08/10 13:49:04;;;;;;;;;;;;;;;;;;4398656;32;69329;-57
2023/08/10 13:51:51;;;;;;;7.27;4.47;;;;;;;;;;4398638;32;66816;-58
2023/08/10 13:54:37;;;;;;;7.78;4.75;;;;;;;;;;4398174;32;70601;-57
2023/08/10 13:57:24;;;;;;;7.28;4.90;;;;;;;;;;4386670;32;64945;-57
2023/08/10 14:00:13;;;;;;;7.90;4.57;;;;;;;;;;4398547;32;67409;-57
2023/08/10 14:03:00;;;;;;;6.47;4.53;;;;;;;;;;4398348;32;67488;-57
2023/08/10 14:05:46;;;;;;;;;;;;;;;;;;4386496;32;71245;-57
2023/08/10 14:08:33;;;;;;;8.55;4.53;;;;;;;;;;4386585;32;65819;-58
2023/08/10 14:11:22;;;;;;;8.68;4.78;;;;;;;;;;4386103;32;66629;-57
2023/08/10 14:14:09;;;;;;;6.68;4.80;;;;;;;;;;4386862;32;59885;-57
2023/08/10 14:16:55;;;;;;;9.02;5.43;;;;;;;;;;4385891;32;70619;-57
2023/08/10 14:19:41;;;;;;;7.62;4.75;;;;;;;;;;4398246;32;69250;-57
2023/08/10 14:22:27;;;;;;;;;;;;;;;;;;4398522;32;67960;-57
2023/08/10 14:25:14;;;;;;;5.62;4.65;;;;;;;;;;4398685;32;70821;-57
2023/08/10 14:28:00;;;;;;;6.75;5.12;;;;;;;;;;4398165;32;70652;-58
2023/08/10 14:30:47;;;;;;;6.62;5.30;;;;;;;;;;4372678;32;70010;-57
2023/08/10 14:33:34;;;;;;;5.62;4.60;;;;;;;;;;4372745;32;68531;-57
2023/08/10 14:36:22;;;;;;;6.10;5.07;;;;;;;;;;4397860;32;71797;-58
2023/08/10 14:39:12;;;;;;;6.82;4.68;;;;;;;;;;4397908;32;66016;-57
2023/08/10 14:41:59;;;;;;;6.18;4.95;;;;;;;;;;4397617;32;66780;-57
2023/08/10 14:44:45;;;;;;;6.72;4.18;;;;;;;;;;4385877;32;60156;-57
2023/08/10 14:47:36;;;;;;;6.30;5.10;;;;;;;;;;4385791;32;71002;-57
2023/08/10 14:50:23;;;;;;;5.00;3.37;;;;;;;;;;4385576;32;69467;-57
2023/08/10 14:53:10;;;;;;;6.53;4.80;;;;;;;;;;4397799;32;67394;-57
2023/08/10 14:55:56;;;;;;;6.00;4.10;;;;;;;;;;4397847;32;59080;-57
2023/08/10 14:58:43;;;;;;;10.48;5.60;;;;;;;;;;4397656;32;70731;-57
2023/08/10 15:01:29;;;;;;;;;;;;;;;;;;4398296;32;68346;-58
2023/08/10 15:04:16;;;;;;;8.37;5.27;;;;;;;;;;4397866;32;67006;-57
2023/08/10 15:07:02;;;;;;;;;;;;;;;;;;4372467;32;71066;-58
2023/08/10 15:09:51;;;;;;;8.37;5.50;;;;;;;;;;4376402;32;65987;-57
2023/08/10 15:12:41;;;;;;;8.32;5.37;;;;;;;;;;4352911;32;66408;-57
2023/08/10 15:15:39;;;;;;;11.93;5.50;;;;;;;;;;4397783;32;58423;-58
2023/08/10 15:19:06;;;;;;;8.73;5.65;;;;;;;;;;4372492;32;71390;-57
2023/08/10 15:22:05;;;;;;;9.60;5.68;;;;;;;;;;4383732;32;64327;-57
2023/08/10 15:24:56;;;;;;;10.25;6.00;;;;;;;;;;4378206;32;67100;-57
2023/08/10 15:28:03;;;;;;;8.52;6.22;;;;;;;;;;4368713;32;59290;-57
2023/08/10 15:30:50;;;;;;;8.60;6.72;;;;;;;;;;4403005;32;69816;-58
2023/08/10 15:33:38;;;;;;;10.27;6.25;;;;;;;;;;4375395;32;69380;-57
2023/08/10 15:36:24;;;;;;;10.88;7.22;;;;;;;;;;4400120;32;68020;-58
2023/08/10 15:39:11;;;;;;;12.25;6.32;;;;;;;;;;4385504;32;72791;-57
2023/08/10 15:41:58;;;;;;;11.93;6.90;;;;;;;;;;4399608;32;70461;-57
2023/08/10 15:44:44;;;;;;;9.98;6.18;;;;;;;;;;4387808;32;69599;-58
2023/08/10 15:47:31;;;;;;;11.80;7.28;;;;;;;;;;4399974;32;67378;-58
2023/08/10 15:50:18;;;;;;;10.25;7.25;;;;;;;;;;4399571;32;71733;-57
2023/08/10 15:53:04;;;;;;;;;;;;;;;;;;4400181;32;66344;-57
2023/08/10 15:55:50;;;;;;;12.53;7.80;;;;;;;;;;4374530;32;68491;-56
2023/08/10 15:58:37;;;;;;;12.52;7.78;;;;;;;;;;4385320;32;60759;-57
2023/08/10 16:01:24;;;;;;;10.32;7.45;;;;;;;;;;4399543;32;69881;-57
2023/08/10 16:04:11;;;;;;;10.07;7.57;;;;;;;;;;4399792;32;68993;-57
2023/08/10 16:06:57;;;;;;;10.52;7.65;;;;;;;;;;4399826;32;68235;-57
2023/08/10 16:09:44;;;;;;;13.27;7.90;;;;;;;;;;4399794;32;58936;-56
2023/08/10 16:12:31;;;;;;;11.52;7.80;;;;;;;;;;4374165;32;71121;-58
2023/08/10 16:15:18;;;;;;;12.13;7.97;;;;;;;;;;4399518;32;69370;-57
2023/08/10 16:18:04;;;;;;;;;;;;;;;;;;4399932;32;67217;-57
2023/08/10 16:20:51;;;;;;;14.80;8.15;;;;;;;;;;4399768;32;72089;-57
2023/08/10 16:23:38;;;;;;;;;;;;;;;;;;4399927;32;65089;-57
2023/08/10 16:26:25;;;;;;;11.23;7.97;;;;;;;;;;4399482;32;68169;-57
2023/08/10 16:29:11;;;;;;;;;;;;;;;;;;4377253;32;60024;-57
2023/08/10 16:31:58;;;;;;;12.43;8.43;;;;;;;;;;4399517;32;70936;-56
2023/08/10 16:34:45;;;;;;;14.05;9.00;;;;;;;;;;4399303;32;64664;-58
2023/08/10 16:37:31;;;;;;;12.77;8.90;;;;;;;;;;4399489;32;67885;-57
2023/08/10 16:40:18;;;;;;;16.12;9.10;;;;;;;;;;4399473;32;60474;-58
2023/08/10 16:43:05;;;;;;;18.45;10.10;;;;;;;;;;4386819;32;70369;-57
2023/08/10 16:45:51;;;;;;;15.98;10.68;;;;;;;;;;4384049;32;69065;-58
2023/08/10 16:48:38;;;;;;;17.80;9.88;;;;;;;;;;4371871;32;67630;-57
2023/08/10 16:51:25;;;;;;;18.45;10.50;;;;;;;;;;4358421;32;72734;-57
2023/08/10 16:54:11;;;;;;;;;;;;;;;;;;4372684;32;65666;-57